Time;durP1;ratioP1;P1;durP2;ratioP2;P2;SDS_P1;SDS_P2;PMS_P1;PMS_P2;Temp;Humidity;BMP_temperature;BMP_pressure;BME280_temperature;BME280_humidity;BME280_pressure;Samples;Min_cycle;Max_cycle;Signal;HPM_P1;HPM_P2
2023/04/07 00:00:43;;;;;;;33.43;14.03;;;8.90;99.90;;;;;;4988152;28;20465;-61
2023/04/07 00:03:10;;;;;;;29.90;13.70;;;8.90;99.90;;;;;;4988000;28;20547;-62
2023/04/07 00:05:36;;;;;;;23.20;12.90;;;8.80;99.90;;;;;;4991127;28;20482;-62
2023/04/07 00:08:03;;;;;;;24.73;14.10;;;8.80;99.90;;;;;;4993584;28;20478;-61
2023/04/07 00:10:30;;;;;;;22.43;10.97;;;8.60;99.90;;;;;;4989423;28;20474;-62
2023/04/07 00:12:58;;;;;;;26.37;14.37;;;8.60;99.90;;;;;;4977295;28;20488;-61
2023/04/07 00:15:25;;;;;;;23.57;12.57;;;8.60;99.90;;;;;;5000472;28;20497;-62
2023/04/07 00:17:52;;;;;;;26.70;12.13;;;8.70;99.90;;;;;;4988470;28;20474;-62
2023/04/07 00:20:18;;;;;;;26.17;13.97;;;8.70;99.90;;;;;;4979933;28;20497;-62
2023/04/07 00:22:45;;;;;;;26.60;12.93;;;8.70;99.90;;;;;;4965881;28;20485;-62
2023/04/07 00:25:12;;;;;;;27.70;12.20;;;8.70;99.90;;;;;;4982369;28;20497;-61
2023/04/07 00:27:39;;;;;;;24.17;14.07;;;8.70;99.90;;;;;;4984269;28;20593;-62
2023/04/07 00:30:08;;;;;;;20.23;12.20;;;8.70;99.90;;;;;;5006874;28;20481;-61
2023/04/07 00:32:36;;;;;;;21.03;11.40;;;8.70;99.90;;;;;;4991108;28;21050;-61
2023/04/07 00:35:02;;;;;;;25.60;14.53;;;8.70;99.90;;;;;;4991513;28;20489;-62
2023/04/07 00:37:29;;;;;;;19.30;11.50;;;8.70;99.90;;;;;;4990685;28;20536;-62
2023/04/07 00:39:58;;;;;;;25.03;11.87;;;8.70;99.90;;;;;;5000535;28;20484;-62
2023/04/07 00:42:24;;;;;;;21.10;13.00;;;8.70;99.90;;;;;;5000922;28;20804;-62
2023/04/07 00:44:51;;;;;;;20.97;11.53;;;8.70;99.90;;;;;;4984677;28;20478;-62
2023/04/07 00:47:20;;;;;;;23.67;11.57;;;8.70;99.90;;;;;;4990573;28;20699;-62
2023/04/07 00:49:46;;;;;;;19.20;12.80;;;8.70;99.90;;;;;;4976828;28;20493;-62
2023/04/07 00:52:15;;;;;;;22.47;12.47;;;8.70;99.90;;;;;;4989394;28;20905;-62
2023/04/07 00:54:42;;;;;;;22.90;10.13;;;8.80;99.90;;;;;;5005982;28;21314;-62
2023/04/07 00:57:09;;;;;;;20.20;12.20;;;8.80;99.90;;;;;;4989036;28;20491;-62
2023/04/07 00:59:36;;;;;;;29.57;14.30;;;8.80;99.90;;;;;;5016846;28;20625;-61
2023/04/07 01:02:14;;;;;;;23.13;12.10;;;8.70;99.90;;;;;;4981973;28;20498;-62
2023/04/07 01:04:47;;;;;;;19.73;12.70;;;8.80;99.90;;;;;;4993742;28;20542;-62
2023/04/07 01:07:23;;;;;;;24.17;11.67;;;8.90;99.90;;;;;;4995301;28;20478;-62
2023/04/07 01:09:55;;;;;;;27.93;11.90;;;8.80;99.90;;;;;;4981690;28;20653;-62
2023/04/07 01:12:35;;;;;;;21.73;12.10;;;8.70;99.90;;;;;;4978272;28;20576;-62
2023/04/07 01:15:09;;;;;;;18.70;11.00;;;8.70;99.90;;;;;;4990691;28;20500;-62
2023/04/07 01:17:38;;;;;;;26.60;15.20;;;8.90;99.90;;;;;;4971320;28;20544;-62
2023/04/07 01:20:11;;;;;;;18.00;10.50;;;8.90;99.90;;;;;;4956315;28;20493;-62
2023/04/07 01:22:42;;;;;;;28.10;16.00;;;8.90;99.90;;;;;;4972316;28;21112;-62
2023/04/07 01:25:26;;;;;;;17.90;11.30;;;8.80;99.90;;;;;;4970279;28;21062;-62
2023/04/07 01:28:09;;;;;;;18.40;10.37;;;8.80;99.90;;;;;;4970041;28;25357;-62
2023/04/07 01:30:40;;;;;;;25.37;15.20;;;8.80;99.90;;;;;;4966719;28;20474;-61
2023/04/07 01:33:09;;;;;;;21.40;13.53;;;8.80;99.90;;;;;;4994843;28;20481;-61
2023/04/07 01:35:38;;;;;;;24.47;11.83;;;8.80;99.90;;;;;;4990175;28;20469;-62
2023/04/07 01:38:06;;;;;;;21.83;12.40;;;8.70;99.90;;;;;;4953074;28;20485;-62
2023/04/07 01:40:34;;;;;;;24.77;14.87;;;8.70;99.90;;;;;;4968988;28;20794;-62
2023/04/07 01:43:02;;;;;;;20.63;12.57;;;8.60;99.90;;;;;;5007473;28;20484;-61
2023/04/07 01:45:30;;;;;;;20.53;12.70;;;8.60;99.90;;;;;;5020865;28;20480;-62
2023/04/07 01:47:59;;;;;;;19.20;12.53;;;8.60;99.90;;;;;;5024690;28;21262;-62
2023/04/07 01:50:27;;;;;;;23.30;15.03;;;8.60;99.90;;;;;;4988997;28;20838;-62
2023/04/07 01:52:54;;;;;;;15.77;10.93;;;8.60;99.90;;;;;;4988250;28;20490;-62
2023/04/07 01:55:21;;;;;;;15.27;10.67;;;8.50;99.90;;;;;;4990993;28;20520;-61
2023/04/07 01:57:54;;;;;;;21.53;13.53;;;8.40;99.90;;;;;;5001934;28;20913;-62
2023/04/07 02:00:21;;;;;;;16.47;11.37;;;8.40;99.90;;;;;;4976785;28;20482;-61
2023/04/07 02:02:51;;;;;;;18.97;9.80;;;8.30;99.90;;;;;;4995506;28;20485;-62
2023/04/07 02:05:21;;;;;;;20.50;12.87;;;8.30;99.90;;;;;;4977326;28;20493;-62
2023/04/07 02:07:52;;;;;;;17.10;11.93;;;8.10;99.90;;;;;;4994584;28;20493;-62
2023/04/07 02:10:23;;;;;;;18.77;12.20;;;8.10;99.90;;;;;;4983763;28;20501;-62
2023/04/07 02:12:51;;;;;;;16.10;11.17;;;8.10;99.90;;;;;;4990788;28;20485;-62
2023/04/07 02:15:19;;;;;;;16.63;11.40;;;8.20;99.90;;;;;;5002989;28;20855;-62
2023/04/07 02:17:49;;;;;;;14.10;9.40;;;8.30;99.90;;;;;;4985112;28;21057;-62
2023/04/07 02:20:19;;;;;;;16.40;10.30;;;8.40;99.90;;;;;;4986530;28;20477;-62
2023/04/07 02:22:46;;;;;;;19.60;9.63;;;8.50;99.90;;;;;;4967096;28;20485;-62
2023/04/07 02:25:24;;;;;;;13.93;10.30;;;8.60;99.90;;;;;;4975986;28;20497;-62
2023/04/07 02:27:51;;;;;;;14.13;10.60;;;8.40;99.90;;;;;;4975960;28;20484;-61
2023/04/07 02:30:18;;;;;;;12.43;9.77;;;8.20;99.90;;;;;;4993555;28;20486;-61
2023/04/07 02:32:45;;;;;;;15.00;10.30;;;8.00;99.90;;;;;;5006617;28;20484;-61
2023/04/07 02:35:12;;;;;;;18.93;11.97;;;7.70;99.90;;;;;;5006518;28;20472;-61
2023/04/07 02:37:40;;;;;;;17.50;11.57;;;7.70;99.90;;;;;;4978049;28;20762;-62
2023/04/07 02:40:08;;;;;;;15.77;11.17;;;7.60;99.90;;;;;;4980121;28;20485;-61
2023/04/07 02:42:35;;;;;;;26.73;13.67;;;7.50;99.90;;;;;;4988253;28;20542;-62
2023/04/07 02:45:02;;;;;;;17.83;11.70;;;7.40;99.90;;;;;;5006162;28;20482;-61
2023/04/07 02:47:28;;;;;;;28.50;14.73;;;7.30;99.90;;;;;;5002139;28;20488;-62
2023/04/07 02:49:55;;;;;;;17.60;12.33;;;7.20;99.90;;;;;;4990052;28;21335;-61
2023/04/07 02:52:22;;;;;;;16.27;11.27;;;7.10;99.90;;;;;;5005996;28;20496;-61
2023/04/07 02:54:50;;;;;;;16.10;10.80;;;7.10;99.90;;;;;;5002615;28;20470;-61
2023/04/07 02:57:17;;;;;;;20.80;10.17;;;7.10;99.90;;;;;;4992798;28;20490;-62
2023/04/07 02:59:43;;;;;;;15.17;10.77;;;7.10;99.90;;;;;;4993373;28;20476;-61
2023/04/07 03:02:10;;;;;;;15.70;10.93;;;7.00;99.90;;;;;;5010760;28;20478;-62
2023/04/07 03:04:37;;;;;;;24.83;14.63;;;6.90;99.90;;;;;;4988002;28;20525;-62
2023/04/07 03:07:04;;;;;;;15.50;10.23;;;6.90;99.90;;;;;;4999264;28;20550;-61
2023/04/07 03:09:30;;;;;;;17.63;10.90;;;6.80;99.90;;;;;;4974875;28;20547;-61
2023/04/07 03:11:58;;;;;;;18.30;11.60;;;6.70;99.90;;;;;;4969953;28;20484;-61
2023/04/07 03:14:26;;;;;;;18.57;12.27;;;6.60;99.90;;;;;;4995931;28;20489;-61
2023/04/07 03:16:52;;;;;;;21.90;11.10;;;6.50;99.90;;;;;;5011833;28;20491;-61
2023/04/07 03:19:19;;;;;;;15.60;9.80;;;6.50;99.90;;;;;;4981704;28;20499;-62
2023/04/07 03:21:46;;;;;;;17.70;11.53;;;6.40;99.90;;;;;;4996230;28;20492;-61
2023/04/07 03:24:12;;;;;;;18.13;11.63;;;6.30;99.90;;;;;;4969916;28;20493;-61
2023/04/07 03:26:39;;;;;;;22.03;13.30;;;6.20;99.90;;;;;;4996203;28;20721;-61
2023/04/07 03:29:07;;;;;;;18.23;9.93;;;6.10;99.90;;;;;;4992335;28;20569;-61
2023/04/07 03:31:35;;;;;;;24.40;14.37;;;6.00;99.90;;;;;;4988101;28;20490;-61
2023/04/07 03:34:01;;;;;;;22.93;10.97;;;5.80;99.90;;;;;;4978528;28;20843;-61
2023/04/07 03:36:28;;;;;;;27.30;14.90;;;5.70;99.90;;;;;;4971423;28;21030;-61
2023/04/07 03:38:55;;;;;;;17.53;11.23;;;5.70;99.90;;;;;;5009101;28;20867;-61
2023/04/07 03:41:21;;;;;;;16.20;10.20;;;5.80;99.90;;;;;;5000278;28;20488;-61
2023/04/07 03:43:48;;;;;;;20.77;11.90;;;5.90;99.90;;;;;;5005726;28;20484;-61
2023/04/07 03:46:16;;;;;;;17.43;10.93;;;5.90;99.90;;;;;;5002848;28;20726;-61
2023/04/07 03:48:43;;;;;;;16.50;10.30;;;5.90;99.90;;;;;;4975810;28;20898;-61
2023/04/07 03:51:09;;;;;;;16.57;9.00;;;6.00;99.90;;;;;;4998270;28;20484;-61
2023/04/07 03:53:36;;;;;;;21.70;13.23;;;6.00;99.90;;;;;;4995924;28;20535;-61
2023/04/07 03:56:03;;;;;;;20.10;11.20;;;6.20;99.90;;;;;;4965040;28;20488;-61
2023/04/07 03:58:30;;;;;;;27.20;14.03;;;6.30;99.90;;;;;;5007642;28;20515;-62
2023/04/07 04:00:57;;;;;;;12.57;9.20;;;6.40;99.90;;;;;;4990143;28;20556;-61
2023/04/07 04:03:25;;;;;;;20.13;12.17;;;6.40;99.90;;;;;;4976646;28;20477;-60
2023/04/07 04:05:51;;;;;;;18.97;11.40;;;6.40;99.90;;;;;;4994077;28;20477;-61
2023/04/07 04:08:18;;;;;;;17.10;10.13;;;6.40;99.90;;;;;;4988398;28;20633;-61
2023/04/07 04:10:45;;;;;;;15.67;10.50;;;6.40;99.90;;;;;;5006106;28;20488;-61
2023/04/07 04:13:11;;;;;;;20.13;11.20;;;6.30;99.90;;;;;;4980409;28;20820;-61
2023/04/07 04:15:38;;;;;;;19.03;11.47;;;6.30;99.90;;;;;;5004653;28;20626;-61
2023/04/07 04:18:05;;;;;;;19.00;9.67;;;6.30;99.90;;;;;;4993968;28;20489;-61
2023/04/07 04:20:33;;;;;;;26.53;13.70;;;6.40;99.90;;;;;;4973716;28;20485;-61
2023/04/07 04:23:00;;;;;;;12.73;8.77;;;6.40;99.90;;;;;;5011470;28;20494;-61
2023/04/07 04:25:26;;;;;;;26.63;11.93;;;6.50;99.90;;;;;;4970622;28;20864;-61
2023/04/07 04:27:53;;;;;;;14.93;9.50;;;6.30;99.90;;;;;;4969062;28;20915;-61
2023/04/07 04:30:20;;;;;;;15.80;9.30;;;6.10;99.90;;;;;;4996015;28;20489;-61
2023/04/07 04:32:47;;;;;;;17.23;9.60;;;;;;;;;;4989736;28;20967;-61
2023/04/07 04:35:13;;;;;;;15.70;9.83;;;6.10;99.90;;;;;;4992578;28;20482;-61
2023/04/07 04:37:41;;;;;;;17.10;10.33;;;6.20;99.90;;;;;;4998100;28;21082;-61
2023/04/07 04:40:10;;;;;;;17.53;10.27;;;6.30;99.90;;;;;;4998200;28;20890;-61
2023/04/07 04:42:37;;;;;;;28.63;15.27;;;6.40;99.90;;;;;;4997663;28;21095;-61
2023/04/07 04:45:04;;;;;;;17.30;10.17;;;6.80;99.90;;;;;;4972144;28;20517;-61
2023/04/07 04:47:31;;;;;;;28.20;14.50;;;6.40;99.90;;;;;;5005473;28;20849;-61
2023/04/07 04:49:58;;;;;;;14.00;9.13;;;6.40;99.90;;;;;;4969666;28;20493;-61
2023/04/07 04:52:24;;;;;;;22.07;12.17;;;6.40;99.90;;;;;;5004486;28;21689;-61
2023/04/07 04:54:53;;;;;;;20.83;10.10;;;6.50;99.90;;;;;;4999683;28;20492;-61
2023/04/07 04:57:20;;;;;;;11.20;8.20;;;6.50;99.90;;;;;;4992810;28;20480;-61
2023/04/07 04:59:46;;;;;;;18.60;11.40;;;6.40;99.90;;;;;;5000781;28;20541;-61
2023/04/07 05:02:13;;;;;;;16.63;9.03;;;6.50;99.90;;;;;;5004638;28;20851;-61
2023/04/07 05:04:40;;;;;;;16.50;10.83;;;6.60;99.90;;;;;;5001185;28;20483;-61
2023/04/07 05:07:07;;;;;;;17.23;10.17;;;6.60;99.90;;;;;;5009984;28;20495;-61
2023/04/07 05:09:33;;;;;;;20.33;12.10;;;6.60;99.90;;;;;;4985338;28;21014;-61
2023/04/07 05:12:01;;;;;;;19.23;10.50;;;6.60;99.90;;;;;;4987949;28;20575;-61
2023/04/07 05:14:28;;;;;;;26.40;14.77;;;6.70;99.90;;;;;;4993245;28;20858;-61
2023/04/07 05:16:55;;;;;;;19.00;10.47;;;6.70;99.90;;;;;;4994188;28;20489;-61
2023/04/07 05:19:22;;;;;;;19.27;9.70;;;6.70;99.90;;;;;;5006343;28;20476;-60
2023/04/07 05:21:49;;;;;;;19.53;11.33;;;6.70;99.90;;;;;;4984781;28;20491;-61
2023/04/07 05:24:15;;;;;;;17.40;10.53;;;6.70;99.90;;;;;;4996416;28;20522;-61
2023/04/07 05:26:42;;;;;;;13.03;9.10;;;6.60;99.90;;;;;;5011666;28;20992;-61
2023/04/07 05:29:10;;;;;;;15.43;10.90;;;6.60;99.90;;;;;;4996304;28;20488;-61
2023/04/07 05:31:39;;;;;;;23.57;13.23;;;6.60;99.90;;;;;;5004836;28;20481;-61
2023/04/07 05:34:05;;;;;;;17.53;10.17;;;6.60;99.90;;;;;;4993205;28;20531;-60
2023/04/07 05:36:32;;;;;;;25.80;13.30;;;6.70;99.90;;;;;;4993126;28;20485;-61
2023/04/07 05:38:59;;;;;;;22.03;11.80;;;6.80;99.90;;;;;;4987761;28;20812;-61
2023/04/07 05:41:26;;;;;;;23.13;13.03;;;6.90;99.90;;;;;;4992065;28;20858;-61
2023/04/07 05:43:53;;;;;;;16.17;9.40;;;6.80;99.90;;;;;;4995876;28;20513;-61
2023/04/07 05:46:21;;;;;;;20.27;9.90;;;7.00;99.90;;;;;;5011623;28;21124;-61
2023/04/07 05:48:47;;;;;;;21.87;9.50;;;7.00;99.90;;;;;;4979029;28;20486;-61
2023/04/07 05:51:14;;;;;;;16.90;9.63;;;7.00;99.90;;;;;;5007281;28;20488;-61
2023/04/07 05:53:41;;;;;;;25.20;10.93;;;7.10;99.90;;;;;;5002906;28;21237;-61
2023/04/07 05:56:08;;;;;;;18.90;10.53;;;7.20;99.90;;;;;;4969272;28;20494;-61
2023/04/07 05:58:34;;;;;;;36.43;15.80;;;7.30;99.90;;;;;;5006744;28;20498;-62
2023/04/07 06:01:01;;;;;;;22.47;11.30;;;7.60;99.90;;;;;;4980400;28;20498;-61
2023/04/07 06:03:30;;;;;;;20.50;11.30;;;7.80;99.90;;;;;;5001818;28;20486;-61
2023/04/07 06:05:57;;;;;;;22.43;11.50;;;8.00;99.90;;;;;;4984851;28;20482;-62
2023/04/07 06:08:24;;;;;;;19.13;11.27;;;8.20;99.90;;;;;;4979567;28;20488;-61
2023/04/07 06:10:51;;;;;;;18.20;9.80;;;8.40;99.90;;;;;;4987083;28;20898;-61
2023/04/07 06:13:18;;;;;;;14.30;7.63;;;8.60;99.90;;;;;;4994463;28;21070;-61
2023/04/07 06:15:44;;;;;;;15.60;7.13;;;8.60;99.90;;;;;;4974098;28;20495;-61
2023/04/07 06:18:11;;;;;;;17.37;8.33;;;8.60;99.90;;;;;;4985371;28;20485;-62
2023/04/07 06:20:39;;;;;;;27.53;13.50;;;8.90;99.90;;;;;;4969033;28;20485;-62
2023/04/07 06:23:06;;;;;;;16.43;10.13;;;9.20;99.90;;;;;;4990276;28;20564;-61
2023/04/07 06:25:33;;;;;;;25.80;12.87;;;9.40;99.90;;;;;;4984447;28;20504;-61
2023/04/07 06:28:00;;;;;;;17.20;9.93;;;9.60;99.90;;;;;;4985847;28;20482;-62
2023/04/07 06:30:26;;;;;;;22.93;11.80;;;10.40;99.80;;;;;;4962458;28;21070;-62
2023/04/07 06:32:53;;;;;;;13.50;8.40;;;10.80;99.20;;;;;;4986560;28;20481;-62
2023/04/07 06:35:20;;;;;;;11.33;8.57;;;11.30;99.20;;;;;;4994051;28;20519;-62
2023/04/07 06:37:48;;;;;;;14.43;9.57;;;11.50;98.00;;;;;;4989679;28;20484;-63
2023/04/07 06:40:15;;;;;;;22.23;11.43;;;11.20;97.90;;;;;;4975253;28;20477;-62
2023/04/07 06:42:42;;;;;;;20.10;10.77;;;10.80;98.40;;;;;;4984883;28;20956;-62
2023/04/07 06:45:09;;;;;;;17.97;9.67;;;10.40;99.30;;;;;;4989275;28;20959;-62
2023/04/07 06:47:37;;;;;;;22.90;14.37;;;10.40;99.80;;;;;;4993043;28;20866;-62
2023/04/07 06:50:04;;;;;;;15.60;10.33;;;10.90;99.90;;;;;;4958113;28;20473;-62
2023/04/07 06:52:30;;;;;;;18.10;12.73;;;11.90;99.70;;;;;;4983267;28;20488;-63
2023/04/07 06:54:58;;;;;;;13.70;10.63;;;12.60;98.70;;;;;;4997317;28;20529;-62
2023/04/07 06:57:26;;;;;;;14.47;10.57;;;13.20;98.10;;;;;;4976990;28;20962;-62
2023/04/07 06:59:53;;;;;;;26.13;10.93;;;13.90;96.80;;;;;;5000906;28;21041;-63
2023/04/07 07:02:19;;;;;;;16.97;9.70;;;14.30;96.70;;;;;;4997308;28;20482;-63
2023/04/07 07:04:46;;;;;;;18.73;9.60;;;15.00;97.10;;;;;;4992316;28;20478;-63
2023/04/07 07:07:13;;;;;;;13.30;8.20;;;15.50;95.70;;;;;;4985917;28;20486;-62
2023/04/07 07:09:39;;;;;;;17.30;10.73;;;15.40;94.90;;;;;;4983852;28;20904;-63
2023/04/07 07:12:07;;;;;;;18.87;9.70;;;14.90;95.00;;;;;;4989277;28;20921;-62
2023/04/07 07:14:34;;;;;;;20.50;12.87;;;14.00;95.10;;;;;;4999632;28;20762;-62
2023/04/07 07:17:01;;;;;;;25.43;14.70;;;13.40;95.70;;;;;;4997106;28;21098;-62
2023/04/07 07:19:27;;;;;;;25.30;14.20;;;13.10;96.30;;;;;;4996307;28;21004;-63
2023/04/07 07:21:55;;;;;;;19.00;10.93;;;12.40;96.70;;;;;;5007541;28;20824;-63
2023/04/07 07:24:22;;;;;;;23.47;11.20;;;12.20;96.90;;;;;;5012356;28;20600;-62
2023/04/07 07:26:48;;;;;;;21.13;11.30;;;11.90;97.40;;;;;;5000745;28;20480;-62
2023/04/07 07:29:16;;;;;;;19.30;10.30;;;11.60;97.70;;;;;;5000902;28;20488;-62
2023/04/07 07:31:43;;;;;;;18.60;10.60;;;11.30;98.00;;;;;;5019346;28;20493;-62
2023/04/07 07:34:10;;;;;;;19.77;11.03;;;11.20;98.60;;;;;;5016454;28;20500;-62
2023/04/07 07:36:36;;;;;;;25.13;13.67;;;11.10;98.60;;;;;;5010981;28;20539;-62
2023/04/07 07:39:04;;;;;;;23.47;12.03;;;11.10;98.80;;;;;;5013359;28;20481;-62
2023/04/07 07:41:31;;;;;;;32.27;14.03;;;11.00;98.70;;;;;;4990558;28;20488;-62
2023/04/07 07:43:57;;;;;;;21.00;10.07;;;10.90;99.40;;;;;;4999854;28;20485;-62
2023/04/07 07:46:26;;;;;;;25.67;13.33;;;10.90;99.20;;;;;;4995834;28;20535;-62
2023/04/07 07:48:52;;;;;;;17.90;11.10;;;10.90;99.80;;;;;;5002248;28;20496;-62
2023/04/07 07:51:19;;;;;;;18.43;9.40;;;10.90;99.10;;;;;;5006392;28;20484;-62
2023/04/07 07:53:46;;;;;;;19.93;11.17;;;10.90;99.50;;;;;;4998345;28;21437;-63
2023/04/07 07:56:13;;;;;;;21.50;13.57;;;10.90;99.20;;;;;;5003031;28;20842;-62
2023/04/07 07:58:40;;;;;;;19.40;12.50;;;11.00;99.60;;;;;;4995697;28;20496;-62
2023/04/07 08:01:07;;;;;;;23.27;12.27;;;11.20;99.90;;;;;;4989431;28;20498;-61
2023/04/07 08:03:35;;;;;;;33.13;14.40;;;11.40;99.40;;;;;;4988509;28;20582;-62
2023/04/07 08:06:02;;;;;;;26.20;11.83;;;11.50;99.90;;;;;;4968550;28;20508;-63
2023/04/07 08:08:28;;;;;;;29.23;16.40;;;11.50;98.60;;;;;;4990968;28;21229;-63
2023/04/07 08:10:55;;;;;;;21.23;12.03;;;11.40;99.10;;;;;;4985643;28;20486;-62
2023/04/07 08:13:22;;;;;;;20.07;11.80;;;11.40;99.10;;;;;;4997660;28;20488;-62
2023/04/07 08:15:48;;;;;;;20.83;12.83;;;11.40;99.20;;;;;;5017255;28;20466;-63
2023/04/07 08:18:15;;;;;;;20.73;10.63;;;11.40;99.00;;;;;;4991164;28;21574;-62
2023/04/07 08:20:43;;;;;;;14.03;9.53;;;11.40;98.50;;;;;;4995167;28;21227;-63
2023/04/07 08:23:10;;;;;;;22.07;12.53;;;11.30;99.00;;;;;;4993777;28;20478;-62
2023/04/07 08:25:38;;;;;;;26.03;15.40;;;11.30;98.90;;;;;;4988467;28;20546;-62
2023/04/07 08:28:05;;;;;;;39.77;15.50;;;11.40;98.70;;;;;;4993144;28;20545;-62
2023/04/07 08:30:32;;;;;;;28.47;16.23;;;11.40;98.70;;;;;;4989219;28;21029;-62
2023/04/07 08:32:58;;;;;;;22.90;14.43;;;11.40;98.60;;;;;;4994795;28;20497;-63
2023/04/07 08:35:25;;;;;;;30.73;15.03;;;11.50;98.60;;;;;;4968165;28;20859;-62
2023/04/07 08:37:53;;;;;;;28.30;15.67;;;11.50;98.80;;;;;;4961786;28;20489;-62
2023/04/07 08:40:20;;;;;;;32.50;13.50;;;11.50;98.80;;;;;;4995485;28;20508;-61
2023/04/07 08:42:48;;;;;;;46.87;17.50;;;11.50;98.70;;;;;;5004967;28;20484;-62
2023/04/07 08:45:17;;;;;;;35.37;16.50;;;;;;;;;;5000326;28;20803;-62
2023/04/07 08:47:46;;;;;;;27.90;15.87;;;11.60;98.50;;;;;;4999342;28;20477;-63
2023/04/07 08:50:16;;;;;;;29.50;14.20;;;11.60;98.70;;;;;;4999048;28;20849;-62
2023/04/07 08:52:46;;;;;;;25.63;15.60;;;11.70;98.70;;;;;;4988644;28;20483;-62
2023/04/07 08:55:15;;;;;;;27.10;15.60;;;11.80;98.80;;;;;;4982419;28;20544;-63
2023/04/07 08:57:42;;;;;;;25.77;14.73;;;11.80;98.40;;;;;;5001718;28;20483;-62
2023/04/07 09:00:10;;;;;;;28.83;16.67;;;11.80;98.50;;;;;;4995930;28;20845;-62
2023/04/07 09:02:38;;;;;;;41.40;19.53;;;;;;;;;;4996070;28;20469;-62
2023/04/07 09:05:07;;;;;;;25.63;15.00;;;11.70;98.00;;;;;;5009228;28;20888;-61
2023/04/07 09:07:34;;;;;;;44.70;19.93;;;11.80;98.30;;;;;;5000704;28;20590;-62
2023/04/07 09:10:02;;;;;;;53.60;16.60;;;;;;;;;;4975325;28;20489;-63
2023/04/07 09:12:31;;;;;;;45.53;22.80;;;11.90;98.50;;;;;;4998143;28;20500;-62
2023/04/07 09:14:58;;;;;;;33.03;17.07;;;12.00;98.70;;;;;;4982266;28;20492;-62
2023/04/07 09:17:25;;;;;;;23.43;13.97;;;12.00;98.10;;;;;;4961447;28;20493;-62
2023/04/07 09:19:53;;;;;;;25.10;13.30;;;12.20;98.20;;;;;;4989227;28;20557;-62
2023/04/07 09:22:35;;;;;;;27.30;11.50;;;;;;;;;;4973746;28;20496;-62
2023/04/07 09:25:11;;;;;;;28.83;13.00;;;12.30;97.70;;;;;;4967296;28;20556;-62
2023/04/07 09:27:39;;;;;;;43.90;16.60;;;12.30;97.70;;;;;;4995953;28;20469;-62
2023/04/07 09:30:13;;;;;;;24.43;10.57;;;12.50;98.20;;;;;;4989047;28;21226;-62
2023/04/07 09:32:41;;;;;;;24.33;11.53;;;12.50;97.70;;;;;;4979361;28;20493;-62
2023/04/07 09:35:08;;;;;;;21.17;11.00;;;12.50;97.50;;;;;;4951106;28;20480;-63
2023/04/07 09:37:35;;;;;;;29.20;13.07;;;12.50;97.40;;;;;;4985861;28;20517;-62
2023/04/07 09:40:02;;;;;;;20.70;12.00;;;12.50;97.80;;;;;;5008068;28;20576;-62
2023/04/07 09:42:31;;;;;;;38.07;17.37;;;12.60;97.90;;;;;;4990258;28;20488;-63
2023/04/07 09:44:59;;;;;;;26.90;14.23;;;12.60;97.50;;;;;;4992896;28;20482;-63
2023/04/07 09:47:27;;;;;;;41.37;15.13;;;12.70;97.40;;;;;;4993333;28;20478;-62
2023/04/07 09:49:55;;;;;;;30.10;13.47;;;12.60;97.10;;;;;;4970289;28;20787;-62
2023/04/07 09:52:25;;;;;;;35.27;13.47;;;12.60;97.30;;;;;;4983674;28;20910;-63
2023/04/07 09:54:54;;;;;;;30.23;12.87;;;12.60;97.40;;;;;;4986728;28;21064;-63
2023/04/07 09:57:22;;;;;;;22.07;10.47;;;12.60;97.40;;;;;;4984476;28;20504;-63
2023/04/07 09:59:50;;;;;;;21.50;11.07;;;12.40;96.70;;;;;;5002405;28;20997;-62
2023/04/07 10:02:18;;;;;;;18.60;9.87;;;12.30;97.00;;;;;;4998565;28;21269;-63
2023/04/07 10:04:45;;;;;;;21.83;8.60;;;12.30;97.00;;;;;;4965702;28;20969;-62
2023/04/07 10:07:12;;;;;;;16.93;10.10;;;12.30;97.20;;;;;;4973072;28;21515;-63
2023/04/07 10:09:38;;;;;;;35.73;14.20;;;12.40;97.40;;;;;;4990621;28;20477;-62
2023/04/07 10:12:07;;;;;;;33.93;9.90;;;12.30;97.30;;;;;;4988878;28;21007;-62
2023/04/07 10:14:35;;;;;;;38.60;15.07;;;12.40;97.50;;;;;;4982698;28;20496;-63
2023/04/07 10:17:03;;;;;;;24.37;11.20;;;12.40;97.50;;;;;;4988699;28;20501;-62
2023/04/07 10:19:33;;;;;;;33.13;13.07;;;12.40;97.50;;;;;;5002711;28;20518;-62
2023/04/07 10:22:01;;;;;;;24.93;10.90;;;12.50;97.40;;;;;;4992990;28;20568;-63
2023/04/07 10:24:40;;;;;;;45.73;14.40;;;12.60;97.40;;;;;;5009727;28;20485;-63
2023/04/07 10:27:10;;;;;;;24.53;9.37;;;12.60;97.50;;;;;;4989037;28;20564;-62
2023/04/07 10:29:40;;;;;;;40.23;13.33;;;12.80;97.60;;;;;;5000485;28;20488;-63
2023/04/07 10:32:08;;;;;;;26.13;7.53;;;13.00;97.50;;;;;;4984357;28;20876;-63
2023/04/07 10:34:58;;;;;;;29.47;10.63;;;13.10;97.00;;;;;;4983007;28;20497;-63
2023/04/07 10:37:26;;;;;;;26.47;8.70;;;13.20;96.90;;;;;;5014958;28;20488;-63
2023/04/07 10:40:29;;;;;;;23.70;9.10;;;13.30;97.00;;;;;;5020370;28;20468;-63
2023/04/07 10:42:56;;;;;;;26.37;9.73;;;13.40;95.60;;;;;;4990207;28;20981;-63
2023/04/07 10:45:55;;;;;;;26.23;8.40;;;13.50;95.80;;;;;;5010271;28;20572;-63
2023/04/07 10:48:22;;;;;;;23.03;8.07;;;13.50;95.10;;;;;;4978246;28;20513;-63
2023/04/07 10:51:28;;;;;;;26.67;8.43;;;13.60;96.70;;;;;;4984881;28;20519;-63
2023/04/07 10:54:21;;;;;;;26.53;8.50;;;13.60;95.90;;;;;;4954209;28;20497;-63
2023/04/07 10:57:15;;;;;;;26.63;8.70;;;13.70;96.60;;;;;;4992993;28;20470;-61
2023/04/07 10:59:58;;;;;;;23.70;8.37;;;13.80;96.40;;;;;;4987343;28;21507;-63
2023/04/07 11:02:34;;;;;;;20.00;9.30;;;13.90;96.50;;;;;;5002042;28;20477;-63
2023/04/07 11:05:01;;;;;;;27.03;9.33;;;13.90;96.50;;;;;;5009878;28;20477;-63
2023/04/07 11:07:49;;;;;;;43.73;13.30;;;13.90;96.00;;;;;;5017943;28;20571;-62
2023/04/07 11:10:20;;;;;;;19.47;8.20;;;13.80;95.80;;;;;;5001149;28;20492;-63
2023/04/07 11:13:02;;;;;;;18.00;9.17;;;14.00;96.70;;;;;;5009286;28;20487;-63
2023/04/07 11:15:28;;;;;;;32.33;13.63;;;14.00;95.90;;;;;;4991754;28;20492;-63
2023/04/07 11:18:12;;;;;;;21.60;9.50;;;14.10;95.40;;;;;;4988087;28;20906;-63
2023/04/07 11:20:43;;;;;;;18.47;9.90;;;14.10;95.80;;;;;;5002770;28;20892;-63
2023/04/07 11:23:11;;;;;;;19.23;9.30;;;14.00;95.50;;;;;;5008159;28;21243;-63
2023/04/07 11:25:41;;;;;;;27.37;11.10;;;14.00;95.50;;;;;;5014812;28;20576;-63
2023/04/07 11:28:10;;;;;;;12.93;7.43;;;13.90;95.20;;;;;;5008265;28;20476;-62
2023/04/07 11:30:37;;;;;;;22.97;11.63;;;13.80;95.40;;;;;;4993702;28;20578;-63
2023/04/07 11:33:04;;;;;;;18.37;7.20;;;13.50;95.90;;;;;;4997558;28;21210;-63
2023/04/07 11:35:31;;;;;;;14.43;8.80;;;13.30;95.90;;;;;;5011782;28;20485;-63
2023/04/07 11:37:59;;;;;;;9.30;7.17;;;13.20;96.10;;;;;;5009360;28;20492;-63
2023/04/07 11:40:33;;;;;;;13.07;7.13;;;13.00;96.40;;;;;;5003372;28;20572;-63
2023/04/07 11:43:01;;;;;;;7.47;5.30;;;12.80;96.80;;;;;;5013050;28;20481;-63
2023/04/07 11:45:28;;;;;;;8.63;5.73;;;12.70;96.80;;;;;;4971616;28;20495;-62
2023/04/07 11:47:55;;;;;;;7.73;5.90;;;12.60;96.40;;;;;;5017083;28;20577;-63
2023/04/07 11:50:41;;;;;;;8.87;4.43;;;12.50;96.60;;;;;;4995575;28;20497;-62
2023/04/07 11:53:08;;;;;;;5.10;4.40;;;12.50;96.80;;;;;;5009878;28;20484;-63
2023/04/07 11:55:35;;;;;;;9.03;6.73;;;12.70;96.80;;;;;;5010591;28;20496;-62
2023/04/07 11:58:09;;;;;;;11.00;5.07;;;12.80;97.20;;;;;;4991526;28;21106;-63
2023/04/07 12:00:37;;;;;;;10.10;7.57;;;12.90;97.30;;;;;;4999122;28;20481;-63
2023/04/07 12:03:12;;;;;;;5.37;4.57;;;13.10;97.20;;;;;;4995577;28;20711;-62
2023/04/07 12:05:44;;;;;;;5.40;4.50;;;13.20;96.90;;;;;;4987402;28;21030;-63
2023/04/07 12:08:11;;;;;;;7.23;6.40;;;13.30;96.50;;;;;;5000475;28;21318;-63
2023/04/07 12:10:39;;;;;;;9.43;6.57;;;13.40;96.60;;;;;;5031276;28;20492;-63
2023/04/07 12:13:07;;;;;;;5.77;4.83;;;13.60;96.50;;;;;;5007413;28;20579;-62
2023/04/07 12:15:35;;;;;;;8.03;6.43;;;13.80;96.40;;;;;;5002725;28;20576;-63
2023/04/07 12:18:02;;;;;;;16.30;6.50;;;14.10;96.50;;;;;;4995130;28;20772;-63
2023/04/07 12:20:29;;;;;;;10.13;6.30;;;14.20;94.60;;;;;;4976439;28;20490;-63
2023/04/07 12:22:56;;;;;;;8.40;4.70;;;14.10;95.30;;;;;;4948541;28;20478;-62
2023/04/07 12:25:23;;;;;;;17.63;5.07;;;14.30;96.10;;;;;;4997930;28;20563;-63
2023/04/07 12:27:50;;;;;;;5.53;5.00;;;14.50;96.20;;;;;;5018973;28;20894;-63
2023/04/07 12:30:17;;;;;;;5.33;4.53;;;14.50;95.20;;;;;;5002109;28;20483;-63
2023/04/07 12:32:45;;;;;;;6.57;5.13;;;14.50;94.80;;;;;;4994417;28;20498;-62
2023/04/07 12:35:12;;;;;;;7.30;6.60;;;14.40;95.00;;;;;;4994818;28;20492;-63
2023/04/07 12:37:41;;;;;;;7.90;7.07;;;14.30;95.40;;;;;;4995964;28;21082;-63
2023/04/07 12:41:05;;;;;;;18.10;6.47;;;14.10;95.30;;;;;;5025243;28;20846;-63
2023/04/07 12:44:29;;;;;;;14.13;8.90;;;13.90;95.10;;;;;;4975973;28;20483;-63
2023/04/07 12:47:54;;;;;;;8.40;6.87;;;13.90;95.50;;;;;;5031945;28;20782;-63